createdAt,value
2022-11-20T00:01:54.187Z,88.03
2022-11-20T00:04:22.513Z,88.00
2022-11-20T00:06:50.983Z,87.60
2022-11-20T00:09:20.590Z,87.77
2022-11-20T00:11:49.507Z,88.27
2022-11-20T00:14:18.206Z,87.83
2022-11-20T00:16:48.217Z,88.19
2022-11-20T00:19:19.401Z,87.88
2022-11-20T00:21:52.562Z,87.84
2022-11-20T00:24:20.780Z,88.03
2022-11-20T00:26:49.328Z,88.31
2022-11-20T00:29:20.799Z,87.72
2022-11-20T00:31:49.487Z,88.33
2022-11-20T00:34:19.834Z,88.40
2022-11-20T00:36:50.816Z,88.40
2022-11-20T00:39:19.692Z,88.45
2022-11-20T00:41:48.018Z,88.34
2022-11-20T00:44:16.466Z,88.79
2022-11-20T00:46:44.461Z,89.19
2022-11-20T00:49:12.950Z,88.96
2022-11-20T00:51:42.860Z,88.87
2022-11-20T00:54:11.109Z,89.00
2022-11-20T00:56:41.166Z,89.33
2022-11-20T00:59:11.412Z,89.74
2022-11-20T01:01:40.080Z,89.62
2022-11-20T01:04:08.669Z,89.81
2022-11-20T01:06:39.583Z,90.33
2022-11-20T01:09:13.947Z,90.43
2022-11-20T01:11:45.772Z,90.60
2022-11-20T01:14:17.801Z,91.13
2022-11-20T01:16:47.058Z,91.37
2022-11-20T01:19:20.411Z,91.88
2022-11-20T01:21:52.969Z,92.43
2022-11-20T01:24:25.287Z,92.81
2022-11-20T01:26:54.504Z,93.10
2022-11-20T01:29:24.740Z,93.47
2022-11-20T01:31:53.840Z,93.67
2022-11-20T01:34:23.242Z,93.77
2022-11-20T01:36:52.378Z,93.79
2022-11-20T01:39:25.743Z,93.95
2022-11-20T01:42:13.805Z,94.21
2022-11-20T01:44:53.470Z,94.50
2022-11-20T01:47:26.213Z,94.59
2022-11-20T01:49:58.839Z,94.64
2022-11-20T01:52:31.614Z,94.86
2022-11-20T01:55:05.471Z,94.85
2022-11-20T01:57:36.132Z,94.77
2022-11-20T02:00:10.762Z,94.91
2022-11-20T02:02:41.443Z,95.01
2022-11-20T02:05:17.329Z,94.86
2022-11-20T02:07:48.071Z,94.74
2022-11-20T02:10:18.251Z,94.84
2022-11-20T02:13:03.881Z,94.67
2022-11-20T02:15:32.862Z,94.69
2022-11-20T02:18:01.559Z,94.75
2022-11-20T02:20:30.010Z,94.64
2022-11-20T02:23:03.930Z,94.64
2022-11-20T02:25:38.573Z,94.54
2022-11-20T02:28:07.940Z,94.46
2022-11-20T02:30:37.568Z,94.67
2022-11-20T02:33:05.903Z,94.25
2022-11-20T02:35:47.250Z,94.43
2022-11-20T02:38:16.496Z,94.54
2022-11-20T02:40:54.076Z,94.57
2022-11-20T02:43:23.949Z,94.81
2022-11-20T02:45:55.540Z,94.72
2022-11-20T02:48:25.316Z,94.35
2022-11-20T02:50:53.866Z,94.45
2022-11-20T02:53:24.945Z,94.45
2022-11-20T02:56:00.677Z,94.48
2022-11-20T02:58:29.069Z,94.29
2022-11-20T03:00:57.438Z,94.36
2022-11-20T03:03:25.807Z,94.08
2022-11-20T03:05:54.517Z,94.32
2022-11-20T03:08:23.344Z,94.02
2022-11-20T03:10:51.666Z,93.65
2022-11-20T03:13:21.913Z,93.72
2022-11-20T03:15:50.348Z,93.30
2022-11-20T03:18:18.738Z,93.35
2022-11-20T03:20:47.253Z,93.55
2022-11-20T03:23:15.810Z,93.82
2022-11-20T03:25:43.904Z,93.83
2022-11-20T03:28:12.262Z,95.10
2022-11-20T03:30:41.965Z,93.77
2022-11-20T03:33:10.349Z,93.63
2022-11-20T03:35:38.950Z,94.00
2022-11-20T03:38:07.582Z,93.91
2022-11-20T03:40:36.540Z,93.77
2022-11-20T03:43:06.278Z,93.47
2022-11-20T03:45:34.567Z,93.26
2022-11-20T03:48:04.265Z,93.22
2022-11-20T03:50:34.662Z,93.04
2022-11-20T03:53:03.115Z,93.02
2022-11-20T03:55:31.167Z,93.29
2022-11-20T03:57:59.629Z,93.40
2022-11-20T04:00:28.331Z,93.61
2022-11-20T04:03:01.850Z,93.26
2022-11-20T04:05:32.841Z,93.43
2022-11-20T04:08:01.169Z,93.45
2022-11-20T04:10:29.556Z,93.83
2022-11-20T04:12:57.905Z,93.88
2022-11-20T04:15:26.325Z,94.26
2022-11-20T04:17:55.977Z,94.07
2022-11-20T04:20:24.492Z,94.25
2022-11-20T04:22:57.173Z,94.47
2022-11-20T04:25:26.408Z,94.27
2022-11-20T04:27:54.675Z,94.16
2022-11-20T04:30:23.416Z,94.07
2022-11-20T04:32:54.278Z,93.77
2022-11-20T04:35:22.982Z,93.80
2022-11-20T04:37:53.702Z,93.59
2022-11-20T04:40:26.492Z,93.45
2022-11-20T04:42:54.728Z,93.53
2022-11-20T04:45:24.783Z,93.09
2022-11-20T04:47:54.469Z,93.10
2022-11-20T04:50:22.978Z,93.07
2022-11-20T04:52:51.209Z,92.77
2022-11-20T04:55:20.665Z,92.78
2022-11-20T04:57:52.697Z,93.13
2022-11-20T05:00:21.718Z,93.12
2022-11-20T05:02:50.052Z,93.17
2022-11-20T05:05:18.769Z,92.63
2022-11-20T05:07:47.575Z,92.78
2022-11-20T05:10:16.076Z,92.84
2022-11-20T05:12:44.546Z,92.73
2022-11-20T05:15:14.752Z,92.76
2022-11-20T05:17:43.143Z,93.10
2022-11-20T05:20:12.985Z,93.29
2022-11-20T05:22:41.608Z,92.75
2022-11-20T05:25:11.471Z,92.77
2022-11-20T05:27:40.087Z,92.66
2022-11-20T05:30:09.722Z,92.72
2022-11-20T05:32:39.583Z,92.99
2022-11-20T05:35:10.429Z,93.08
2022-11-20T05:37:38.957Z,93.03
2022-11-20T05:40:11.611Z,93.20
2022-11-20T05:42:40.268Z,93.36
2022-11-20T05:45:09.907Z,93.13
2022-11-20T05:47:39.413Z,93.29
2022-11-20T05:50:08.851Z,93.22
2022-11-20T05:52:37.319Z,92.89
2022-11-20T05:55:06.431Z,92.95
2022-11-20T05:57:35.047Z,92.77
2022-11-20T06:00:03.822Z,92.44
2022-11-20T06:02:36.594Z,93.08
2022-11-20T06:05:06.980Z,92.96
2022-11-20T06:07:35.321Z,92.84
2022-11-20T06:10:05.067Z,93.04
2022-11-20T06:12:35.211Z,93.12
2022-11-20T06:15:03.380Z,93.04
2022-11-20T06:17:31.629Z,93.02
2022-11-20T06:19:59.848Z,93.12
2022-11-20T06:22:30.192Z,93.00
2022-11-20T06:25:00.793Z,93.04
2022-11-20T06:27:29.387Z,93.20
2022-11-20T06:29:57.810Z,93.02
2022-11-20T06:32:26.245Z,92.92
2022-11-20T06:34:57.669Z,92.80
2022-11-20T06:37:25.982Z,92.98
2022-11-20T06:39:55.862Z,92.64
2022-11-20T06:42:24.481Z,93.07
2022-11-20T06:44:53.065Z,93.12
2022-11-20T06:47:21.715Z,92.67
2022-11-20T06:49:51.097Z,92.92
2022-11-20T06:52:19.889Z,92.85
2022-11-20T06:54:48.359Z,92.96
2022-11-20T06:57:19.233Z,92.96
2022-11-20T06:59:47.815Z,92.84
2022-11-20T07:02:16.330Z,93.15
2022-11-20T07:04:44.484Z,92.80
2022-11-20T07:07:13.061Z,92.39
2022-11-20T07:09:42.021Z,92.10
2022-11-20T07:12:10.673Z,92.18
2022-11-20T07:14:40.493Z,91.52
2022-11-20T07:17:09.557Z,91.96
2022-11-20T07:19:37.919Z,91.85
2022-11-20T07:22:08.093Z,91.67
2022-11-20T07:24:40.748Z,91.79
2022-11-20T07:27:13.203Z,91.27
2022-11-20T07:29:42.939Z,91.63
2022-11-20T07:32:12.515Z,91.71
2022-11-20T07:34:42.576Z,91.35
2022-11-20T07:37:11.129Z,92.10
2022-11-20T07:39:39.425Z,91.93
2022-11-20T07:42:13.254Z,92.53
2022-11-20T07:44:44.333Z,91.30
2022-11-20T07:47:16.139Z,91.99
2022-11-20T07:49:44.678Z,91.81
2022-11-20T07:52:12.969Z,92.01
2022-11-20T07:54:41.614Z,92.42
2022-11-20T07:57:10.755Z,91.92
2022-11-20T07:59:39.907Z,92.17
2022-11-20T08:02:12.568Z,91.67
2022-11-20T08:04:41.278Z,91.52
2022-11-20T08:07:09.785Z,92.20
2022-11-20T08:09:38.581Z,91.83
2022-11-20T08:12:32.606Z,92.62
2022-11-20T08:15:01.711Z,92.46
2022-11-20T08:17:34.370Z,92.55
2022-11-20T08:20:04.594Z,91.81
2022-11-20T08:22:33.146Z,92.12
2022-11-20T08:25:01.544Z,91.43
2022-11-20T08:27:30.373Z,92.22
2022-11-20T08:29:59.821Z,92.13
2022-11-20T08:32:33.101Z,91.42
2022-11-20T08:35:02.811Z,90.52
2022-11-20T08:37:31.320Z,91.05
2022-11-20T08:40:01.005Z,91.09
2022-11-20T08:42:29.434Z,91.07
2022-11-20T08:44:58.089Z,89.77
2022-11-20T08:47:33.159Z,90.39
2022-11-20T08:50:03.932Z,89.86
2022-11-20T08:52:38.464Z,91.12
2022-11-20T08:55:11.372Z,90.90
2022-11-20T08:57:40.153Z,89.28
2022-11-20T09:00:14.364Z,90.65
2022-11-20T09:02:44.705Z,88.58
2022-11-20T09:05:18.362Z,89.99
2022-11-20T09:07:50.016Z,89.84
2022-11-20T09:10:26.070Z,90.33
2022-11-20T09:12:56.676Z,89.41
2022-11-20T09:15:25.595Z,89.20
2022-11-20T09:17:54.602Z,88.98
2022-11-20T09:20:25.033Z,89.08
2022-11-20T09:22:53.450Z,89.31
2022-11-20T09:25:21.670Z,88.00
2022-11-20T09:27:50.878Z,88.22
2022-11-20T09:30:19.231Z,87.81
2022-11-20T09:32:47.605Z,89.07
2022-11-20T09:35:16.355Z,87.76
2022-11-20T09:37:46.038Z,88.87
2022-11-20T09:40:23.312Z,88.55
2022-11-20T09:42:57.312Z,87.51
2022-11-20T09:45:36.666Z,87.38
2022-11-20T09:48:20.108Z,86.65
2022-11-20T09:50:55.920Z,87.21
2022-11-20T09:53:36.403Z,87.39
2022-11-20T09:56:06.209Z,86.02
2022-11-20T09:58:38.309Z,86.43
2022-11-20T10:01:15.032Z,86.28
2022-11-20T10:03:55.091Z,85.78
2022-11-20T10:06:31.370Z,86.47
2022-11-20T10:09:10.622Z,87.39
2022-11-20T10:11:49.146Z,86.78
2022-11-20T10:14:31.639Z,85.37
2022-11-20T10:17:05.925Z,86.08
2022-11-20T10:19:48.957Z,85.37
2022-11-20T10:22:32.293Z,85.85
2022-11-20T10:25:07.990Z,85.35
2022-11-20T10:27:51.515Z,85.37
2022-11-20T10:30:23.181Z,85.39
2022-11-20T10:32:55.532Z,84.83
2022-11-20T10:35:28.999Z,83.80
2022-11-20T10:38:01.556Z,83.44
2022-11-20T10:40:38.130Z,84.29
2022-11-20T10:43:13.548Z,84.02
2022-11-20T10:46:00.567Z,83.27
2022-11-20T10:48:30.659Z,82.83
2022-11-20T10:51:11.331Z,83.58
2022-11-20T10:53:49.545Z,82.72
2022-11-20T10:56:24.890Z,83.29
2022-11-20T10:59:07.848Z,83.02
2022-11-20T11:01:42.635Z,82.43
2022-11-20T11:04:24.802Z,83.19
2022-11-20T11:06:53.696Z,83.47
2022-11-20T11:09:29.592Z,83.61
2022-11-20T11:12:04.228Z,82.95
2022-11-20T11:14:44.594Z,83.34
2022-11-20T11:17:24.510Z,82.92
2022-11-20T11:20:09.872Z,83.57
2022-11-20T11:22:49.135Z,82.48
2022-11-20T11:25:27.086Z,82.54
2022-11-20T11:28:00.163Z,83.28
2022-11-20T11:30:31.301Z,83.01
2022-11-20T11:33:09.570Z,82.78
2022-11-20T11:35:51.086Z,82.56
2022-11-20T11:38:23.688Z,82.94
2022-11-20T11:40:56.545Z,82.63
2022-11-20T11:43:46.020Z,83.52
2022-11-20T11:46:31.765Z,82.93
2022-11-20T11:49:02.319Z,83.85
2022-11-20T11:51:37.052Z,82.69
2022-11-20T11:54:16.492Z,83.66
2022-11-20T11:56:45.858Z,82.66
2022-11-20T11:59:24.671Z,83.13
2022-11-20T12:01:59.324Z,82.80
2022-11-20T12:04:45.927Z,82.93
2022-11-20T12:07:45.626Z,83.31
2022-11-20T12:10:19.121Z,83.28
2022-11-20T12:12:52.442Z,83.34
2022-11-20T12:15:30.671Z,83.40
2022-11-20T12:17:59.833Z,83.88
2022-11-20T12:20:36.960Z,83.50
2022-11-20T12:23:18.241Z,83.09
2022-11-20T12:25:53.542Z,82.66
2022-11-20T12:28:44.295Z,82.45
2022-11-20T12:31:35.549Z,82.67
2022-11-20T12:34:21.282Z,82.73
2022-11-20T12:36:58.058Z,82.70
2022-11-20T12:39:43.506Z,82.90
2022-11-20T12:42:51.628Z,82.78
2022-11-20T12:45:40.518Z,82.72
2022-11-20T12:48:33.292Z,82.54
2022-11-20T12:51:21.491Z,83.76
2022-11-20T12:54:04.465Z,82.55
2022-11-20T12:56:43.076Z,82.59
2022-11-20T12:59:31.064Z,82.50
2022-11-20T13:02:16.200Z,82.85
2022-11-20T13:05:03.535Z,83.20
2022-11-20T13:07:33.242Z,82.04
2022-11-20T13:10:02.853Z,81.97
2022-11-20T13:12:36.240Z,82.28
2022-11-20T13:15:13.780Z,81.94
2022-11-20T13:17:53.525Z,82.68
2022-11-20T13:20:24.191Z,83.05
2022-11-20T13:22:58.446Z,83.52
2022-11-20T13:25:29.254Z,82.95
2022-11-20T13:27:59.297Z,83.48
2022-11-20T13:30:30.167Z,83.13
2022-11-20T13:33:02.225Z,83.21
2022-11-20T13:35:33.926Z,83.07
2022-11-20T13:38:05.626Z,82.91
2022-11-20T13:40:36.575Z,82.61
2022-11-20T13:43:17.240Z,83.36
2022-11-20T13:45:58.060Z,83.59
2022-11-20T13:48:30.674Z,84.10
2022-11-20T13:51:12.520Z,84.26
2022-11-20T13:53:59.513Z,84.45
2022-11-20T13:56:38.569Z,84.83
2022-11-20T13:59:15.167Z,84.68
2022-11-20T14:01:47.909Z,85.06
2022-11-20T14:04:20.701Z,85.43
2022-11-20T14:06:54.861Z,85.63
2022-11-20T14:09:33.794Z,85.37
2022-11-20T14:12:05.125Z,85.44
2022-11-20T14:14:38.497Z,85.67
2022-11-20T14:17:18.881Z,85.91
2022-11-20T14:19:49.767Z,86.28
2022-11-20T14:22:26.343Z,86.10
2022-11-20T14:25:07.079Z,86.47
2022-11-20T14:27:38.668Z,86.92
2022-11-20T14:30:16.923Z,87.03
2022-11-20T14:32:50.061Z,87.40
2022-11-20T14:35:28.659Z,87.96
2022-11-20T14:38:00.006Z,88.54
2022-11-20T14:40:32.822Z,88.61
2022-11-20T14:43:02.828Z,88.66
2022-11-20T14:45:32.498Z,89.03
2022-11-20T14:48:02.098Z,89.25
2022-11-20T14:50:31.622Z,89.22
2022-11-20T14:53:02.593Z,89.61
2022-11-20T14:55:36.681Z,89.65
2022-11-20T14:58:06.175Z,90.23
2022-11-20T15:00:38.312Z,90.69
2022-11-20T15:03:17.108Z,90.23
2022-11-20T15:05:50.647Z,90.67
2022-11-20T15:08:20.744Z,91.40
2022-11-20T15:10:52.287Z,91.19
2022-11-20T15:13:29.514Z,91.15
2022-11-20T15:15:59.340Z,91.45
2022-11-20T15:18:31.035Z,91.31
2022-11-20T15:21:05.400Z,91.89
2022-11-20T15:23:35.415Z,91.81
2022-11-20T15:26:06.739Z,92.14
2022-11-20T15:28:38.754Z,92.48
2022-11-20T15:31:09.560Z,92.95
2022-11-20T15:33:37.987Z,93.37
2022-11-20T15:36:07.651Z,93.46
2022-11-20T15:38:37.986Z,93.39
2022-11-20T15:41:06.944Z,93.53
2022-11-20T15:43:35.564Z,93.48
2022-11-20T15:46:13.782Z,93.91
2022-11-20T15:48:47.911Z,94.32
2022-11-20T15:51:26.986Z,94.19
2022-11-20T15:53:57.818Z,94.08
2022-11-20T15:56:26.954Z,94.23
2022-11-20T15:58:56.860Z,94.31
2022-11-20T16:01:25.496Z,94.55
2022-11-20T16:03:54.248Z,94.42
2022-11-20T16:06:22.636Z,94.65
2022-11-20T16:08:50.877Z,94.74
2022-11-20T16:11:21.052Z,95.13
2022-11-20T16:14:08.816Z,94.73
2022-11-20T16:16:39.606Z,94.93
2022-11-20T16:19:07.637Z,95.19
2022-11-20T16:21:38.631Z,95.76
2022-11-20T16:24:09.288Z,95.65
2022-11-20T16:26:43.329Z,95.83
2022-11-20T16:29:13.351Z,96.16
2022-11-20T16:31:42.236Z,96.52
2022-11-20T16:34:12.513Z,96.66
2022-11-20T16:36:43.343Z,96.46
2022-11-20T16:39:12.031Z,96.36
2022-11-20T16:41:42.170Z,96.60
2022-11-20T16:44:12.457Z,96.75
2022-11-20T16:46:41.523Z,96.76
2022-11-20T16:49:14.045Z,96.66
2022-11-20T16:51:42.984Z,96.66
2022-11-20T16:54:16.444Z,96.70
2022-11-20T16:56:51.800Z,97.04
2022-11-20T16:59:21.584Z,97.56
2022-11-20T17:01:50.260Z,97.42
2022-11-20T17:04:19.220Z,97.62
2022-11-20T17:06:48.241Z,97.74
2022-11-20T17:09:19.265Z,97.65
2022-11-20T17:11:47.610Z,97.83
2022-11-20T17:14:18.858Z,97.96
2022-11-20T17:16:46.919Z,97.93
2022-11-20T17:19:16.636Z,97.93
2022-11-20T17:21:45.034Z,97.65
2022-11-20T17:24:16.126Z,98.06
2022-11-20T17:26:46.018Z,98.00
2022-11-20T17:29:15.698Z,98.06
2022-11-20T17:31:46.496Z,97.77
2022-11-20T17:34:17.240Z,98.49
2022-11-20T17:36:46.766Z,98.28
2022-11-20T17:39:15.748Z,98.44
2022-11-20T17:41:44.511Z,98.73
2022-11-20T17:44:14.384Z,98.72
2022-11-20T17:46:42.992Z,98.86
2022-11-20T17:49:13.100Z,99.17
2022-11-20T17:51:42.381Z,99.62
2022-11-20T17:54:12.542Z,99.51
2022-11-20T17:56:58.490Z,99.38
2022-11-20T17:59:26.813Z,99.46
2022-11-20T18:01:57.633Z,99.62
2022-11-20T18:04:31.016Z,99.64
2022-11-20T18:06:59.666Z,99.82
2022-11-20T18:09:28.246Z,99.64
2022-11-20T18:11:57.101Z,99.66
2022-11-20T18:14:32.125Z,99.79
2022-11-20T18:17:02.844Z,99.83
2022-11-20T18:19:37.601Z,99.99
2022-11-20T18:22:09.545Z,99.99
2022-11-20T18:24:41.002Z,99.99
2022-11-20T18:27:13.989Z,99.99
2022-11-20T18:29:43.567Z,99.99
2022-11-20T18:32:12.517Z,99.99
2022-11-20T18:34:43.379Z,99.99
2022-11-20T18:37:14.768Z,99.99
2022-11-20T18:39:43.788Z,99.99
2022-11-20T18:42:32.141Z,99.99
2022-11-20T18:45:01.463Z,99.99
2022-11-20T18:47:32.154Z,99.99
2022-11-20T18:50:06.767Z,99.99
2022-11-20T18:52:40.048Z,99.99
2022-11-20T18:55:10.573Z,99.99
2022-11-20T18:57:38.772Z,99.99
2022-11-20T19:00:09.861Z,99.92
2022-11-20T19:02:42.103Z,99.88
2022-11-20T19:05:12.320Z,99.61
2022-11-20T19:07:41.121Z,99.83
2022-11-20T19:10:10.033Z,99.92
2022-11-20T19:12:39.075Z,99.99
2022-11-20T19:15:08.525Z,99.99
2022-11-20T19:17:37.883Z,99.99
2022-11-20T19:20:07.524Z,99.99
2022-11-20T19:22:37.838Z,99.99
2022-11-20T19:25:07.227Z,99.99
2022-11-20T19:27:35.625Z,99.99
2022-11-20T19:30:04.533Z,99.99
2022-11-20T19:32:35.272Z,99.99
2022-11-20T19:35:04.792Z,99.99
2022-11-20T19:37:34.509Z,99.99
2022-11-20T19:40:07.024Z,99.99
2022-11-20T19:42:35.788Z,99.99
2022-11-20T19:45:05.925Z,99.99
2022-11-20T19:48:01.084Z,99.99
2022-11-20T19:50:23.135Z,99.99
2022-11-20T19:52:58.478Z,99.99
2022-11-20T19:55:29.725Z,99.99
2022-11-20T19:58:01.075Z,99.99
2022-11-20T20:00:33.094Z,99.99
2022-11-20T20:03:05.134Z,99.99
2022-11-20T20:05:36.952Z,99.99
2022-11-20T20:08:06.585Z,99.99
2022-11-20T20:10:36.819Z,99.99
2022-11-20T20:13:06.830Z,99.99
2022-11-20T20:15:35.199Z,99.99
2022-11-20T20:18:03.274Z,99.99
2022-11-20T20:20:32.839Z,99.99
2022-11-20T20:23:02.825Z,99.99
2022-11-20T20:25:32.268Z,99.99
2022-11-20T20:28:02.294Z,99.99
2022-11-20T20:30:31.315Z,99.99
2022-11-20T20:33:01.829Z,99.99
2022-11-20T20:35:30.965Z,99.99
2022-11-20T20:38:00.418Z,99.99
2022-11-20T20:40:28.529Z,99.99
2022-11-20T20:42:59.418Z,99.99
2022-11-20T20:45:29.663Z,99.99
2022-11-20T20:48:00.117Z,99.99
2022-11-20T20:50:30.206Z,99.99
2022-11-20T20:53:03.548Z,99.99
2022-11-20T20:55:33.955Z,99.99
2022-11-20T20:58:02.904Z,99.99
2022-11-20T21:00:32.705Z,99.99
2022-11-20T21:03:04.239Z,99.99
2022-11-20T21:05:32.561Z,99.99
2022-11-20T21:08:28.728Z,99.99
2022-11-20T21:11:03.819Z,99.99
2022-11-20T21:13:34.120Z,99.99
2022-11-20T21:16:07.970Z,99.99
2022-11-20T21:18:36.695Z,99.99
2022-11-20T21:21:24.142Z,99.99
2022-11-20T21:23:57.494Z,99.99
2022-11-20T21:26:26.784Z,99.99
2022-11-20T21:28:54.957Z,99.99
